sensor_id;sensor_type;location;lat;lon;timestamp;pressure;altitude;pressure_sealevel;temperature;humidity
71716;BME280;59568;52.128;5.434;2023-12-14T00:01:58;101136.88;;;4.74;100.00
71716;BME280;59568;52.128;5.434;2023-12-14T00:04:25;101134.50;;;4.72;100.00
71716;BME280;59568;52.128;5.434;2023-12-14T00:06:52;101136.56;;;4.70;100.00
71716;BME280;59568;52.128;5.434;2023-12-14T00:09:19;101152.09;;;4.70;100.00
71716;BME280;59568;52.128;5.434;2023-12-14T00:11:46;101160.09;;;4.69;100.00
71716;BME280;59568;52.128;5.434;2023-12-14T00:14:13;101157.28;;;4.70;100.00
71716;BME280;59568;52.128;5.434;2023-12-14T00:16:40;101172.81;;;4.70;100.00
71716;BME280;59568;52.128;5.434;2023-12-14T00:19:07;101171.00;;;4.71;100.00
71716;BME280;59568;52.128;5.434;2023-12-14T00:21:34;101169.97;;;4.72;100.00
71716;BME280;59568;52.128;5.434;2023-12-14T00:24:01;101174.38;;;4.71;100.00
71716;BME280;59568;52.128;5.434;2023-12-14T00:26:28;101176.47;;;4.74;100.00
71716;BME280;59568;52.128;5.434;2023-12-14T00:28:55;101187.09;;;4.73;100.00
71716;BME280;59568;52.128;5.434;2023-12-14T00:31:27;101185.19;;;4.68;100.00
71716;BME280;59568;52.128;5.434;2023-12-14T00:33:55;101193.19;;;4.67;100.00
71716;BME280;59568;52.128;5.434;2023-12-14T00:36:22;101201.50;;;4.69;100.00
71716;BME280;59568;52.128;5.434;2023-12-14T00:38:49;101200.72;;;4.68;100.00
71716;BME280;59568;52.128;5.434;2023-12-14T00:41:16;101203.31;;;4.68;100.00
71716;BME280;59568;52.128;5.434;2023-12-14T00:43:43;101207.72;;;4.68;100.00
71716;BME280;59568;52.128;5.434;2023-12-14T00:46:10;101208.50;;;4.68;100.00
71716;BME280;59568;52.128;5.434;2023-12-14T00:48:38;101208.50;;;4.68;100.00
71716;BME280;59568;52.128;5.434;2023-12-14T00:51:05;101206.69;;;4.69;100.00
71716;BME280;59568;52.128;5.434;2023-12-14T00:53:32;101213.44;;;4.70;100.00
71716;BME280;59568;52.128;5.434;2023-12-14T00:55:59;101211.09;;;4.68;100.00
71716;BME280;59568;52.128;5.434;2023-12-14T00:58:26;101227.38;;;4.69;100.00
71716;BME280;59568;52.128;5.434;2023-12-14T01:00:53;101224.50;;;4.65;100.00
71716;BME280;59568;52.128;5.434;2023-12-14T01:03:21;101230.16;;;4.62;100.00
71716;BME280;59568;52.128;5.434;2023-12-14T01:05:48;101232.72;;;4.62;100.00
71716;BME280;59568;52.128;5.434;2023-12-14T01:08:15;101245.69;;;4.62;100.00
71716;BME280;59568;52.128;5.434;2023-12-14T01:10:43;101237.91;;;4.62;100.00
71716;BME280;59568;52.128;5.434;2023-12-14T01:13:10;101251.88;;;4.61;100.00
71716;BME280;59568;52.128;5.434;2023-12-14T01:15:37;101253.94;;;4.59;100.00
71716;BME280;59568;52.128;5.434;2023-12-14T01:18:04;101259.09;;;4.59;100.00
71716;BME280;59568;52.128;5.434;2023-12-14T01:20:31;101272.28;;;4.57;100.00
71716;BME280;59568;52.128;5.434;2023-12-14T01:22:58;101264.28;;;4.59;100.00
71716;BME280;59568;52.128;5.434;2023-12-14T01:25:25;101274.63;;;4.59;100.00
71716;BME280;59568;52.128;5.434;2023-12-14T01:27:52;101279.81;;;4.59;100.00
71716;BME280;59568;52.128;5.434;2023-12-14T01:30:19;101283.16;;;4.59;100.00
71716;BME280;59568;52.128;5.434;2023-12-14T01:32:46;101283.94;;;4.60;100.00
71716;BME280;59568;52.128;5.434;2023-12-14T01:35:13;101293.75;;;4.58;100.00
71716;BME280;59568;52.128;5.434;2023-12-14T01:37:40;101291.16;;;4.58;100.00
71716;BME280;59568;52.128;5.434;2023-12-14T01:40:08;101292.19;;;4.57;100.00
71716;BME280;59568;52.128;5.434;2023-12-14T01:42:35;101282.41;;;4.59;100.00
71716;BME280;59568;52.128;5.434;2023-12-14T01:45:02;101293.75;;;4.58;100.00
71716;BME280;59568;52.128;5.434;2023-12-14T01:47:30;101291.16;;;4.58;100.00
71716;BME280;59568;52.128;5.434;2023-12-14T01:49:57;101298.94;;;4.58;100.00
71716;BME280;59568;52.128;5.434;2023-12-14T01:52:24;101316.03;;;4.59;100.00
71716;BME280;59568;52.128;5.434;2023-12-14T01:54:51;101319.63;;;4.58;100.00
71716;BME280;59568;52.128;5.434;2023-12-14T01:57:18;101322.69;;;4.55;100.00
71716;BME280;59568;52.128;5.434;2023-12-14T01:59:45;101332.03;;;4.56;100.00
71716;BME280;59568;52.128;5.434;2023-12-14T02:02:11;101327.88;;;4.55;100.00
71716;BME280;59568;52.128;5.434;2023-12-14T02:04:39;101334.06;;;4.54;100.00
71716;BME280;59568;52.128;5.434;2023-12-14T02:07:06;101335.66;;;4.55;100.00
71716;BME280;59568;52.128;5.434;2023-12-14T02:09:32;101346.78;;;4.55;100.00
71716;BME280;59568;52.128;5.434;2023-12-14T02:11:59;101349.03;;;4.52;100.00
71716;BME280;59568;52.128;5.434;2023-12-14T02:14:26;101350.63;;;4.53;100.00
71716;BME280;59568;52.128;5.434;2023-12-14T02:16:53;101364.56;;;4.52;100.00
71716;BME280;59568;52.128;5.434;2023-12-14T02:19:20;101361.97;;;4.52;100.00
71716;BME280;59568;52.128;5.434;2023-12-14T02:21:47;101360.41;;;4.51;100.00
71716;BME280;59568;52.128;5.434;2023-12-14T02:24:14;101370.78;;;4.51;100.00
71716;BME280;59568;52.128;5.434;2023-12-14T02:26:41;101370.78;;;4.51;100.00
71716;BME280;59568;52.128;5.434;2023-12-14T02:29:27;101381.13;;;4.51;100.00
71716;BME280;59568;52.128;5.434;2023-12-14T02:31:54;101391.91;;;4.48;100.00
71716;BME280;59568;52.128;5.434;2023-12-14T02:34:21;101409.59;;;4.51;100.00
71716;BME280;59568;52.128;5.434;2023-12-14T02:36:48;101405.97;;;4.52;100.00
71716;BME280;59568;52.128;5.434;2023-12-14T02:39:15;101412.41;;;4.49;100.00
71716;BME280;59568;52.128;5.434;2023-12-14T02:41:42;101409.81;;;4.49;100.00
71716;BME280;59568;52.128;5.434;2023-12-14T02:44:09;101416.00;;;4.48;100.00
71716;BME280;59568;52.128;5.434;2023-12-14T02:46:36;101419.59;;;4.47;100.00
71716;BME280;59568;52.128;5.434;2023-12-14T02:49:03;101419.38;;;4.49;100.00
71716;BME280;59568;52.128;5.434;2023-12-14T02:51:30;101422.97;;;4.48;100.00
71716;BME280;59568;52.128;5.434;2023-12-14T02:53:57;101423.75;;;4.48;100.00
71716;BME280;59568;52.128;5.434;2023-12-14T02:56:24;101425.56;;;4.48;100.00
71716;BME280;59568;52.128;5.434;2023-12-14T02:58:51;101422.19;;;4.47;100.00
71716;BME280;59568;52.128;5.434;2023-12-14T03:01:20;101437.16;;;4.45;100.00
71716;BME280;59568;52.128;5.434;2023-12-14T03:03:50;101430.97;;;4.46;100.00
71716;BME280;59568;52.128;5.434;2023-12-14T03:06:17;101442.13;;;4.47;100.00
71716;BME280;59568;52.128;5.434;2023-12-14T03:08:44;101439.53;;;4.47;100.00
71716;BME280;59568;52.128;5.434;2023-12-14T03:11:21;101435.91;;;4.48;100.00
71716;BME280;59568;52.128;5.434;2023-12-14T03:13:49;101446.50;;;4.46;100.00
71716;BME280;59568;52.128;5.434;2023-12-14T03:16:16;101444.13;;;4.45;100.00
71716;BME280;59568;52.128;5.434;2023-12-14T03:18:45;101452.47;;;4.47;100.00
71716;BME280;59568;52.128;5.434;2023-12-14T03:21:12;101448.06;;;4.47;100.00
71716;BME280;59568;52.128;5.434;2023-12-14T03:23:39;101445.72;;;4.46;100.00
71716;BME280;59568;52.128;5.434;2023-12-14T03:26:06;101450.09;;;4.45;100.00
71716;BME280;59568;52.128;5.434;2023-12-14T03:28:33;101450.66;;;4.47;100.00
71716;BME280;59568;52.128;5.434;2023-12-14T03:31:01;101457.88;;;4.45;100.00
71716;BME280;59568;52.128;5.434;2023-12-14T03:33:28;101456.06;;;4.46;100.00
71716;BME280;59568;52.128;5.434;2023-12-14T03:35:55;101451.88;;;4.45;100.00
71716;BME280;59568;52.128;5.434;2023-12-14T03:38:22;101452.47;;;4.47;100.00
71716;BME280;59568;52.128;5.434;2023-12-14T03:40:49;101444.13;;;4.45;100.00
71716;BME280;59568;52.128;5.434;2023-12-14T03:43:16;101443.34;;;4.44;100.00
71716;BME280;59568;52.128;5.434;2023-12-14T03:45:43;101448.28;;;4.46;100.00
71716;BME280;59568;52.128;5.434;2023-12-14T03:48:10;101450.09;;;4.45;100.00
71716;BME280;59568;52.128;5.434;2023-12-14T03:50:37;101461.22;;;4.46;100.00
71716;BME280;59568;52.128;5.434;2023-12-14T03:53:04;101453.47;;;4.46;100.00
71716;BME280;59568;52.128;5.434;2023-12-14T03:55:30;101457.06;;;4.45;100.00
71716;BME280;59568;52.128;5.434;2023-12-14T03:57:57;101456.06;;;4.46;100.00
71716;BME280;59568;52.128;5.434;2023-12-14T04:00:25;101453.69;;;4.44;100.00
71716;BME280;59568;52.128;5.434;2023-12-14T04:02:52;101455.72;;;4.42;100.00
71716;BME280;59568;52.128;5.434;2023-12-14T04:05:19;101461.69;;;4.43;100.00
71716;BME280;59568;52.128;5.434;2023-12-14T04:07:46;101467.88;;;4.42;100.00
71716;BME280;59568;52.128;5.434;2023-12-14T04:10:13;101468.09;;;4.40;100.00
71716;BME280;59568;52.128;5.434;2023-12-14T04:12:40;101480.25;;;4.39;100.00
71716;BME280;59568;52.128;5.434;2023-12-14T04:15:09;101486.44;;;4.38;100.00
71716;BME280;59568;52.128;5.434;2023-12-14T04:17:36;101491.63;;;4.38;100.00
71716;BME280;59568;52.128;5.434;2023-12-14T04:20:04;101501.66;;;4.35;100.00
71716;BME280;59568;52.128;5.434;2023-12-14T04:22:33;101508.38;;;4.36;100.00
71716;BME280;59568;52.128;5.434;2023-12-14T04:25:00;101514.81;;;4.33;100.00
71716;BME280;59568;52.128;5.434;2023-12-14T04:27:27;101504.69;;;4.32;100.00
71716;BME280;59568;52.128;5.434;2023-12-14T04:29:56;101516.84;;;4.31;100.00
71716;BME280;59568;52.128;5.434;2023-12-14T04:32:23;101518.66;;;4.31;100.00
71716;BME280;59568;52.128;5.434;2023-12-14T04:34:50;101521.44;;;4.29;100.00
71716;BME280;59568;52.128;5.434;2023-12-14T04:37:17;101526.06;;;4.27;100.00
71716;BME280;59568;52.128;5.434;2023-12-14T04:39:44;101528.09;;;4.25;100.00
71716;BME280;59568;52.128;5.434;2023-12-14T04:42:11;101534.03;;;4.26;100.00
71716;BME280;59568;52.128;5.434;2023-12-14T04:44:38;101543.59;;;4.25;100.00
71716;BME280;59568;52.128;5.434;2023-12-14T04:47:05;101544.41;;;4.26;100.00
71716;BME280;59568;52.128;5.434;2023-12-14T04:49:32;101555.53;;;4.26;100.00
71716;BME280;59568;52.128;5.434;2023-12-14T04:51:59;101563.06;;;4.28;100.00
71716;BME280;59568;52.128;5.434;2023-12-14T04:54:26;101565.66;;;4.28;100.00
71716;BME280;59568;52.128;5.434;2023-12-14T04:56:53;101564.09;;;4.27;100.00
71716;BME280;59568;52.128;5.434;2023-12-14T04:59:20;101577.81;;;4.27;100.00
71716;BME280;59568;52.128;5.434;2023-12-14T05:01:47;101582.41;;;4.25;100.00
71716;BME280;59568;52.128;5.434;2023-12-14T05:04:14;101590.19;;;4.25;100.00
71716;BME280;59568;52.128;5.434;2023-12-14T05:06:41;101598.94;;;4.24;100.00
71716;BME280;59568;52.128;5.434;2023-12-14T05:09:07;101595.78;;;4.22;100.00
71716;BME280;59568;52.128;5.434;2023-12-14T05:11:34;101600.97;;;4.22;100.00
71716;BME280;59568;52.128;5.434;2023-12-14T05:14:01;101612.13;;;4.23;100.00
71716;BME280;59568;52.128;5.434;2023-12-14T05:16:29;101606.94;;;4.23;100.00
71716;BME280;59568;52.128;5.434;2023-12-14T05:18:57;101617.28;;;4.23;100.00
71716;BME280;59568;52.128;5.434;2023-12-14T05:21:24;101624.03;;;4.24;100.00
71716;BME280;59568;52.128;5.434;2023-12-14T05:23:51;101631.00;;;4.23;100.00
71716;BME280;59568;52.128;5.434;2023-12-14T05:26:19;101649.53;;;4.20;100.00
71716;BME280;59568;52.128;5.434;2023-12-14T05:28:45;101646.97;;;4.20;100.00
71716;BME280;59568;52.128;5.434;2023-12-14T05:31:12;101654.72;;;4.20;100.00
71716;BME280;59568;52.128;5.434;2023-12-14T05:33:40;101649.75;;;4.18;100.00
71716;BME280;59568;52.128;5.434;2023-12-14T05:36:07;101658.34;;;4.19;100.00
71716;BME280;59568;52.128;5.434;2023-12-14T05:38:41;101662.47;;;4.20;100.00
71716;BME280;59568;52.128;5.434;2023-12-14T05:41:09;101661.69;;;4.19;100.00
71716;BME280;59568;52.128;5.434;2023-12-14T05:43:37;101665.88;;;4.20;100.00
71716;BME280;59568;52.128;5.434;2023-12-14T05:46:04;101662.69;;;4.18;100.00
71716;BME280;59568;52.128;5.434;2023-12-14T05:48:31;101665.06;;;4.20;100.00
71716;BME280;59568;52.128;5.434;2023-12-14T05:50:59;101664.28;;;4.19;100.00
71716;BME280;59568;52.128;5.434;2023-12-14T05:53:26;101666.66;;;4.21;100.00
71716;BME280;59568;52.128;5.434;2023-12-14T05:55:54;101679.03;;;4.19;100.00
71716;BME280;59568;52.128;5.434;2023-12-14T05:58:20;101686.22;;;4.17;100.00
71716;BME280;59568;52.128;5.434;2023-12-14T06:00:48;101691.41;;;4.17;100.00
71716;BME280;59568;52.128;5.434;2023-12-14T06:03:15;101694.97;;;4.16;100.00
71716;BME280;59568;52.128;5.434;2023-12-14T06:05:42;101689.22;;;4.14;100.00
71716;BME280;59568;52.128;5.434;2023-12-14T06:08:09;101702.94;;;4.14;100.00
71716;BME280;59568;52.128;5.434;2023-12-14T06:10:36;101714.53;;;4.12;100.00
71716;BME280;59568;52.128;5.434;2023-12-14T06:13:03;101712.81;;;4.06;100.00
71716;BME280;59568;52.128;5.434;2023-12-14T06:15:31;101701.91;;;4.04;100.00
71716;BME280;59568;52.128;5.434;2023-12-14T06:17:58;101718.44;;;4.03;100.00
71716;BME280;59568;52.128;5.434;2023-12-14T06:20:26;101724.63;;;4.02;100.00
71716;BME280;59568;52.128;5.434;2023-12-14T06:22:53;101723.06;;;4.00;100.00
71716;BME280;59568;52.128;5.434;2023-12-14T06:25:21;101732.81;;;3.98;100.00
71716;BME280;59568;52.128;5.434;2023-12-14T06:27:48;101735.84;;;3.95;100.00
71716;BME280;59568;52.128;5.434;2023-12-14T06:30:16;101743.03;;;3.93;100.00
71716;BME280;59568;52.128;5.434;2023-12-14T06:32:43;101742.25;;;3.93;100.00
71716;BME280;59568;52.128;5.434;2023-12-14T06:35:10;101752.78;;;3.91;100.00
71716;BME280;59568;52.128;5.434;2023-12-14T06:37:37;101755.81;;;3.88;100.00
71716;BME280;59568;52.128;5.434;2023-12-14T06:40:05;101767.16;;;3.87;100.00
71716;BME280;59568;52.128;5.434;2023-12-14T06:42:32;101773.34;;;3.86;100.00
71716;BME280;59568;52.128;5.434;2023-12-14T06:45:02;101765.00;;;3.84;100.00
71716;BME280;59568;52.128;5.434;2023-12-14T06:47:29;101778.94;;;3.83;100.00
71716;BME280;59568;52.128;5.434;2023-12-14T06:49:56;101790.28;;;3.82;100.00
71716;BME280;59568;52.128;5.434;2023-12-14T06:52:24;101792.09;;;3.82;100.00
71716;BME280;59568;52.128;5.434;2023-12-14T06:54:51;101787.13;;;3.80;100.00
71716;BME280;59568;52.128;5.434;2023-12-14T06:57:18;101797.47;;;3.80;100.00
71716;BME280;59568;52.128;5.434;2023-12-14T06:59:45;101794.88;;;3.80;100.00
71716;BME280;59568;52.128;5.434;2023-12-14T07:02:12;101805.22;;;3.80;100.00
71716;BME280;59568;52.128;5.434;2023-12-14T07:04:39;101805.31;;;3.73;100.00
71716;BME280;59568;52.128;5.434;2023-12-14T07:07:06;101822.63;;;3.73;100.00
71716;BME280;59568;52.128;5.434;2023-12-14T07:09:35;101822.03;;;3.71;100.00
71716;BME280;59568;52.128;5.434;2023-12-14T07:12:02;101830.78;;;3.70;100.00
71716;BME280;59568;52.128;5.434;2023-12-14T07:14:29;101833.00;;;3.66;100.00
71716;BME280;59568;52.128;5.434;2023-12-14T07:16:56;101836.03;;;3.63;100.00
71716;BME280;59568;52.128;5.434;2023-12-14T07:19:24;101841.19;;;3.63;100.00
71716;BME280;59568;52.128;5.434;2023-12-14T07:21:51;101847.16;;;3.64;100.00
71716;BME280;59568;52.128;5.434;2023-12-14T07:24:18;101849.16;;;3.62;100.00
71716;BME280;59568;52.128;5.434;2023-12-14T07:26:45;101849.59;;;3.58;100.00
71716;BME280;59568;52.128;5.434;2023-12-14T07:29:12;101854.78;;;3.58;100.00
71716;BME280;59568;52.128;5.434;2023-12-14T07:31:39;101860.72;;;3.59;100.00
71716;BME280;59568;52.128;5.434;2023-12-14T07:34:06;101853.97;;;3.58;100.00
71716;BME280;59568;52.128;5.434;2023-12-14T07:36:33;101866.88;;;3.58;100.00
71716;BME280;59568;52.128;5.434;2023-12-14T07:39:00;101867.13;;;3.56;100.00
71716;BME280;59568;52.128;5.434;2023-12-14T07:41:28;101868.47;;;3.59;100.00
71716;BME280;59568;52.128;5.434;2023-12-14T07:43:56;101871.06;;;3.59;100.00
71716;BME280;59568;52.128;5.434;2023-12-14T07:46:23;101875.44;;;3.58;100.00
71716;BME280;59568;52.128;5.434;2023-12-14T07:48:51;101880.63;;;3.58;100.00
71716;BME280;59568;52.128;5.434;2023-12-14T07:51:18;101882.97;;;3.60;100.00
71716;BME280;59568;52.128;5.434;2023-12-14T07:53:45;101885.34;;;3.62;100.00
71716;BME280;59568;52.128;5.434;2023-12-14T07:56:13;101897.28;;;3.63;100.00
71716;BME280;59568;52.128;5.434;2023-12-14T07:58:40;101886.13;;;3.62;100.00
71716;BME280;59568;52.128;5.434;2023-12-14T08:01:07;101895.28;;;3.65;100.00
71716;BME280;59568;52.128;5.434;2023-12-14T08:03:35;101892.69;;;3.65;100.00
71716;BME280;59568;52.128;5.434;2023-12-14T08:06:02;101898.44;;;3.67;100.00
71716;BME280;59568;52.128;5.434;2023-12-14T08:08:30;101907.75;;;3.68;100.00
71716;BME280;59568;52.128;5.434;2023-12-14T08:10:57;101913.94;;;3.67;100.00
71716;BME280;59568;52.128;5.434;2023-12-14T08:13:24;101913.94;;;3.67;100.00
71716;BME280;59568;52.128;5.434;2023-12-14T08:15:51;101908.78;;;3.67;100.00
71716;BME280;59568;52.128;5.434;2023-12-14T08:18:18;101912.34;;;3.66;100.00
71716;BME280;59568;52.128;5.434;2023-12-14T08:20:45;101915.72;;;3.66;100.00
71716;BME280;59568;52.128;5.434;2023-12-14T08:23:12;101929.44;;;3.67;100.00
71716;BME280;59568;52.128;5.434;2023-12-14T08:25:39;101930.03;;;3.69;100.00
71716;BME280;59568;52.128;5.434;2023-12-14T08:28:06;101935.97;;;3.69;100.00
71716;BME280;59568;52.128;5.434;2023-12-14T08:30:33;101944.53;;;3.70;100.00
71716;BME280;59568;52.128;5.434;2023-12-14T08:33:00;101945.53;;;3.69;100.00
71716;BME280;59568;52.128;5.434;2023-12-14T08:35:27;101940.94;;;3.71;100.00
71716;BME280;59568;52.128;5.434;2023-12-14T08:37:55;101954.47;;;3.73;100.00
71716;BME280;59568;52.128;5.434;2023-12-14T08:40:22;101945.69;;;3.74;100.00
71716;BME280;59568;52.128;5.434;2023-12-14T08:42:49;101947.06;;;3.76;100.00
71716;BME280;59568;52.128;5.434;2023-12-14T08:45:16;101954.38;;;3.79;100.00
71716;BME280;59568;52.128;5.434;2023-12-14T08:47:44;101971.28;;;3.82;100.00
71716;BME280;59568;52.128;5.434;2023-12-14T08:50:11;101963.09;;;3.85;100.00
71716;BME280;59568;52.128;5.434;2023-12-14T08:52:39;101965.69;;;3.85;100.00
71716;BME280;59568;52.128;5.434;2023-12-14T08:55:08;101981.00;;;3.87;100.00
71716;BME280;59568;52.128;5.434;2023-12-14T08:57:35;101990.53;;;3.86;100.00
71716;BME280;59568;52.128;5.434;2023-12-14T09:00:02;101991.53;;;3.85;100.00
71716;BME280;59568;52.128;5.434;2023-12-14T09:02:33;101989.75;;;3.86;100.00
71716;BME280;59568;52.128;5.434;2023-12-14T09:05:01;101992.53;;;3.84;100.00
71716;BME280;59568;52.128;5.434;2023-12-14T09:07:28;101998.88;;;3.88;100.00
71716;BME280;59568;52.128;5.434;2023-12-14T09:09:55;101997.28;;;3.87;100.00
71716;BME280;59568;52.128;5.434;2023-12-14T09:12:23;102000.47;;;3.89;100.00
71716;BME280;59568;52.128;5.434;2023-12-14T09:14:49;102004.03;;;3.88;100.00
71716;BME280;59568;52.128;5.434;2023-12-14T09:17:16;102004.03;;;3.88;100.00
71716;BME280;59568;52.128;5.434;2023-12-14T09:19:44;102016.75;;;3.90;100.00
71716;BME280;59568;52.128;5.434;2023-12-14T09:22:11;102017.13;;;3.93;100.00
71716;BME280;59568;52.128;5.434;2023-12-14T09:24:38;102020.31;;;3.95;100.00
71716;BME280;59568;52.128;5.434;2023-12-14T09:27:05;102033.81;;;3.97;100.00
71716;BME280;59568;52.128;5.434;2023-12-14T09:29:32;102030.25;;;3.98;100.00
71716;BME280;59568;52.128;5.434;2023-12-14T09:31:59;102027.06;;;3.96;100.00
71716;BME280;59568;52.128;5.434;2023-12-14T09:34:26;102024.25;;;3.98;100.00
71716;BME280;59568;52.128;5.434;2023-12-14T09:36:54;102039.34;;;4.01;100.00
71716;BME280;59568;52.128;5.434;2023-12-14T09:39:23;102038.56;;;4.00;100.00
71716;BME280;59568;52.128;5.434;2023-12-14T09:41:50;102041.75;;;4.03;100.00
71716;BME280;59568;52.128;5.434;2023-12-14T09:44:17;102043.88;;;4.06;100.00
71716;BME280;59568;52.128;5.434;2023-12-14T09:46:45;102054.03;;;4.07;100.00
71716;BME280;59568;52.128;5.434;2023-12-14T09:49:16;102058.78;;;4.10;100.00
71716;BME280;59568;52.128;5.434;2023-12-14T09:51:45;102058.78;;;4.10;100.00
71716;BME280;59568;52.128;5.434;2023-12-14T09:54:13;102066.69;;;4.15;100.00
71716;BME280;59568;52.128;5.434;2023-12-14T09:56:47;102085.19;;;4.19;100.00
71716;BME280;59568;52.128;5.434;2023-12-14T09:59:15;102088.16;;;4.23;100.00
71716;BME280;59568;52.128;5.434;2023-12-14T10:01:42;102089.50;;;4.25;100.00
71716;BME280;59568;52.128;5.434;2023-12-14T10:04:19;102096.25;;;4.26;100.00
71716;BME280;59568;52.128;5.434;2023-12-14T10:06:50;102102.00;;;4.28;100.00
71716;BME280;59568;52.128;5.434;2023-12-14T10:09:23;102098.22;;;4.31;100.00
71716;BME280;59568;52.128;5.434;2023-12-14T10:12:03;102108.94;;;4.34;100.00
71716;BME280;59568;52.128;5.434;2023-12-14T10:14:31;102115.84;;;4.40;100.00
71716;BME280;59568;52.128;5.434;2023-12-14T10:16:59;102108.31;;;4.39;100.00
71716;BME280;59568;52.128;5.434;2023-12-14T10:19:44;102106.06;;;4.43;100.00
71716;BME280;59568;52.128;5.434;2023-12-14T10:22:14;102094.91;;;4.49;100.00
71716;BME280;59568;52.128;5.434;2023-12-14T10:24:46;102112.75;;;4.57;100.00
71716;BME280;59568;52.128;5.434;2023-12-14T10:27:14;102111.06;;;4.63;100.00
71716;BME280;59568;52.128;5.434;2023-12-14T10:29:44;102106.44;;;4.71;100.00
71716;BME280;59568;52.128;5.434;2023-12-14T10:32:12;102102.97;;;4.77;100.00
71716;BME280;59568;52.128;5.434;2023-12-14T10:34:41;102110.03;;;4.89;100.00
71716;BME280;59568;52.128;5.434;2023-12-14T10:37:09;102109.72;;;4.97;100.00
71716;BME280;59568;52.128;5.434;2023-12-14T10:39:37;102111.69;;;5.02;100.00
71716;BME280;59568;52.128;5.434;2023-12-14T10:42:08;102112.06;;;5.05;100.00
71716;BME280;59568;52.128;5.434;2023-12-14T10:44:45;102117.16;;;5.12;100.00
71716;BME280;59568;52.128;5.434;2023-12-14T10:47:35;102113.50;;;5.19;100.00
71716;BME280;59568;52.128;5.434;2023-12-14T10:50:03;102117.06;;;5.18;100.00
71716;BME280;59568;52.128;5.434;2023-12-14T10:52:32;102118.09;;;5.17;100.00
71716;BME280;59568;52.128;5.434;2023-12-14T10:55:07;102113.69;;;5.18;100.00
71716;BME280;59568;52.128;5.434;2023-12-14T10:57:35;102117.53;;;5.15;100.00
71716;BME280;59568;52.128;5.434;2023-12-14T11:00:03;102116.28;;;5.18;100.00
71716;BME280;59568;52.128;5.434;2023-12-14T11:02:40;102123.41;;;5.23;100.00
71716;BME280;59568;52.128;5.434;2023-12-14T11:05:11;102125.00;;;5.24;100.00
71716;BME280;59568;52.128;5.434;2023-12-14T11:07:55;102126.94;;;5.28;100.00
71716;BME280;59568;52.128;5.434;2023-12-14T11:10:26;102128.75;;;5.28;100.00
71716;BME280;59568;52.128;5.434;2023-12-14T11:13:01;102140.09;;;5.27;100.00
71716;BME280;59568;52.128;5.434;2023-12-14T11:15:30;102142.06;;;5.31;100.00
71716;BME280;59568;52.128;5.434;2023-12-14T11:21:00;102153.56;;;5.35;100.00
71716;BME280;59568;52.128;5.434;2023-12-14T11:23:31;102155.72;;;5.38;100.00
71716;BME280;59568;52.128;5.434;2023-12-14T11:26:06;102158.69;;;5.42;100.00
71716;BME280;59568;52.128;5.434;2023-12-14T11:28:39;102151.59;;;5.49;100.00
71716;BME280;59568;52.128;5.434;2023-12-14T11:31:11;102155.22;;;5.48;100.00
71716;BME280;59568;52.128;5.434;2023-12-14T11:33:39;102160.41;;;5.48;100.00
71716;BME280;59568;52.128;5.434;2023-12-14T11:36:13;102159.25;;;5.44;100.00
71716;BME280;59568;52.128;5.434;2023-12-14T11:38:41;102168.25;;;5.42;100.00
71716;BME280;59568;52.128;5.434;2023-12-14T11:41:09;102156.78;;;5.49;100.00
71716;BME280;59568;52.128;5.434;2023-12-14T11:43:43;102166.16;;;5.50;100.00
71716;BME280;59568;52.128;5.434;2023-12-14T11:46:11;102164.72;;;5.54;100.00
71716;BME280;59568;52.128;5.434;2023-12-14T11:48:39;102158.75;;;5.54;100.00
71716;BME280;59568;52.128;5.434;2023-12-14T11:51:06;102164.84;;;5.59;100.00
71716;BME280;59568;52.128;5.434;2023-12-14T11:53:36;102168.94;;;5.67;100.00
71716;BME280;59568;52.128;5.434;2023-12-14T11:56:06;102164.19;;;5.64;100.00
71716;BME280;59568;52.128;5.434;2023-12-14T11:58:34;102162.38;;;5.65;100.00
71716;BME280;59568;52.128;5.434;2023-12-14T12:01:18;102172.66;;;5.71;100.00
71716;BME280;59568;52.128;5.434;2023-12-14T12:03:45;102172.03;;;5.76;100.00
71716;BME280;59568;52.128;5.434;2023-12-14T12:08:50;102175.56;;;5.93;100.00
71716;BME280;59568;52.128;5.434;2023-12-14T12:11:19;102179.63;;;5.89;100.00
71716;BME280;59568;52.128;5.434;2023-12-14T12:13:59;102183.22;;;5.88;100.00
71716;BME280;59568;52.128;5.434;2023-12-14T12:16:27;102183.22;;;5.88;100.00
71716;BME280;59568;52.128;5.434;2023-12-14T12:18:54;102177.16;;;5.94;100.00
71716;BME280;59568;52.128;5.434;2023-12-14T12:21:21;102183.16;;;5.95;100.00
71716;BME280;59568;52.128;5.434;2023-12-14T12:23:48;102185.53;;;5.96;100.00
71716;BME280;59568;52.128;5.434;2023-12-14T12:26:15;102186.53;;;5.95;100.00
71716;BME280;59568;52.128;5.434;2023-12-14T12:28:42;102190.28;;;5.99;100.00
71716;BME280;59568;52.128;5.434;2023-12-14T12:31:10;102191.09;;;6.00;100.00
71716;BME280;59568;52.128;5.434;2023-12-14T12:33:37;102206.41;;;6.02;100.00
71716;BME280;59568;52.128;5.434;2023-12-14T12:36:06;102189.28;;;6.00;100.00
71716;BME280;59568;52.128;5.434;2023-12-14T12:38:33;102192.09;;;5.99;100.00
71716;BME280;59568;52.128;5.434;2023-12-14T12:41:00;102191.66;;;6.02;100.00
71716;BME280;59568;52.128;5.434;2023-12-14T12:43:28;102199.09;;;5.98;100.00
71716;BME280;59568;52.128;5.434;2023-12-14T12:45:55;102203.25;;;5.99;100.00
71716;BME280;59568;52.128;5.434;2023-12-14T12:48:24;102205.63;;;6.01;100.00
71716;BME280;59568;52.128;5.434;2023-12-14T12:50:54;102207.66;;;5.99;100.00
71716;BME280;59568;52.128;5.434;2023-12-14T12:53:21;102205.84;;;5.99;100.00
71716;BME280;59568;52.128;5.434;2023-12-14T12:55:48;102200.66;;;5.99;100.00
71716;BME280;59568;52.128;5.434;2023-12-14T12:58:15;102210.59;;;6.03;100.00
71716;BME280;59568;52.128;5.434;2023-12-14T13:00:42;102205.84;;;5.99;100.00